sensor_id;sensor_type;location;lat;lon;timestamp;pressure;altitude;pressure_sealevel;temperature;humidity
40850;BME280;26571;41.610;25.380;2023-04-04T00:01:30;97061.75;;;11.57;100.00
40850;BME280;26571;41.610;25.380;2023-04-04T00:03:56;97064.56;;;11.62;100.00
40850;BME280;26571;41.610;25.380;2023-04-04T00:06:21;97056.06;;;11.53;100.00
40850;BME280;26571;41.610;25.380;2023-04-04T00:08:46;97059.31;;;11.62;100.00
40850;BME280;26571;41.610;25.380;2023-04-04T00:11:12;97059.94;;;11.51;100.00
40850;BME280;26571;41.610;25.380;2023-04-04T00:13:38;97052.63;;;11.59;100.00
40850;BME280;26571;41.610;25.380;2023-04-04T00:16:03;97056.47;;;11.57;100.00
40850;BME280;26571;41.610;25.380;2023-04-04T00:18:29;97054.88;;;11.56;100.00
40850;BME280;26571;41.610;25.380;2023-04-04T00:20:54;97060.53;;;11.66;100.00
40850;BME280;26571;41.610;25.380;2023-04-04T00:23:20;97057.25;;;11.77;100.00
40850;BME280;26571;41.610;25.380;2023-04-04T00:25:51;97056.88;;;11.67;100.00
40850;BME280;26571;41.610;25.380;2023-04-04T00:28:17;97065.75;;;11.73;100.00
40850;BME280;26571;41.610;25.380;2023-04-04T00:30:42;97057.69;;;11.61;100.00
40850;BME280;26571;41.610;25.380;2023-04-04T00:33:07;97071.69;;;11.55;100.00
40850;BME280;26571;41.610;25.380;2023-04-04T00:35:33;97072.28;;;11.57;100.00
40850;BME280;26571;41.610;25.380;2023-04-04T00:37:58;97070.91;;;11.54;100.00
40850;BME280;26571;41.610;25.380;2023-04-04T00:40:23;97074.94;;;11.50;100.00
40850;BME280;26571;41.610;25.380;2023-04-04T00:42:49;97076.38;;;11.46;100.00
40850;BME280;26571;41.610;25.380;2023-04-04T00:45:14;97073.75;;;11.39;100.00
40850;BME280;26571;41.610;25.380;2023-04-04T00:47:39;97061.78;;;11.37;100.00
40850;BME280;26571;41.610;25.380;2023-04-04T00:50:06;97059.41;;;11.09;100.00
40850;BME280;26571;41.610;25.380;2023-04-04T00:52:32;97063.03;;;11.08;100.00
40850;BME280;26571;41.610;25.380;2023-04-04T00:54:57;97056.97;;;11.14;100.00
40850;BME280;26571;41.610;25.380;2023-04-04T00:57:23;97058.78;;;11.20;100.00
40850;BME280;26571;41.610;25.380;2023-04-04T00:59:49;97053.28;;;11.22;100.00
40850;BME280;26571;41.610;25.380;2023-04-04T01:02:15;97037.47;;;11.28;100.00
40850;BME280;26571;41.610;25.380;2023-04-04T01:04:41;97033.25;;;11.21;100.00
40850;BME280;26571;41.610;25.380;2023-04-04T01:07:06;97033.84;;;11.23;100.00
40850;BME280;26571;41.610;25.380;2023-04-04T01:09:32;97020.69;;;11.29;100.00
40850;BME280;26571;41.610;25.380;2023-04-04T01:11:57;97015.41;;;11.29;100.00
40850;BME280;26571;41.610;25.380;2023-04-04T01:14:23;97016.41;;;11.28;100.00
40850;BME280;26571;41.610;25.380;2023-04-04T01:16:49;97003.66;;;11.25;100.00
40850;BME280;26571;41.610;25.380;2023-04-04T01:19:17;97000.22;;;11.18;100.00
40850;BME280;26571;41.610;25.380;2023-04-04T01:21:44;97003.47;;;11.20;100.00
40850;BME280;26571;41.610;25.380;2023-04-04T01:24:10;97006.50;;;11.17;100.00
40850;BME280;26571;41.610;25.380;2023-04-04T01:26:37;97007.91;;;11.26;100.00
40850;BME280;26571;41.610;25.380;2023-04-04T01:29:02;97010.31;;;11.34;100.00
40850;BME280;26571;41.610;25.380;2023-04-04T01:31:50;97009.50;;;11.41;100.00
40850;BME280;26571;41.610;25.380;2023-04-04T01:34:16;96998.53;;;11.44;100.00
40850;BME280;26571;41.610;25.380;2023-04-04T01:36:50;97008.25;;;11.43;100.00
40850;BME280;26571;41.610;25.380;2023-04-04T01:39:31;97002.81;;;11.45;100.00
40850;BME280;26571;41.610;25.380;2023-04-04T01:41:59;96999.75;;;11.54;100.00
40850;BME280;26571;41.610;25.380;2023-04-04T01:44:26;97002.56;;;11.53;100.00
40850;BME280;26571;41.610;25.380;2023-04-04T01:46:54;96995.28;;;11.55;100.00
40850;BME280;26571;41.610;25.380;2023-04-04T01:49:22;96995.47;;;11.60;100.00
40850;BME280;26571;41.610;25.380;2023-04-04T01:51:48;96987.34;;;11.61;100.00
40850;BME280;26571;41.610;25.380;2023-04-04T01:54:15;96989.16;;;11.61;100.00
40850;BME280;26571;41.610;25.380;2023-04-04T01:56:43;96993.63;;;11.60;100.00
40850;BME280;26571;41.610;25.380;2023-04-04T01:59:08;97000.31;;;11.63;100.00
40850;BME280;26571;41.610;25.380;2023-04-04T02:01:33;96998.94;;;11.54;100.00
40850;BME280;26571;41.610;25.380;2023-04-04T02:03:59;96987.59;;;11.47;100.00
40850;BME280;26571;41.610;25.380;2023-04-04T02:06:24;96991.22;;;11.52;100.00
40850;BME280;26571;41.610;25.380;2023-04-04T02:08:49;96998.94;;;11.54;100.00
40850;BME280;26571;41.610;25.380;2023-04-04T02:11:15;96996.09;;;11.49;100.00
40850;BME280;26571;41.610;25.380;2023-04-04T02:13:41;96998.13;;;11.47;100.00
40850;BME280;26571;41.610;25.380;2023-04-04T02:16:08;96992.06;;;11.46;100.00
40850;BME280;26571;41.610;25.380;2023-04-04T02:18:33;96997.50;;;11.51;100.00
40850;BME280;26571;41.610;25.380;2023-04-04T02:21:00;96993.25;;;11.50;100.00
40850;BME280;26571;41.610;25.380;2023-04-04T02:23:25;96954.75;;;11.43;100.00
40850;BME280;26571;41.610;25.380;2023-04-04T02:25:50;96989.38;;;11.59;100.00
40850;BME280;26571;41.610;25.380;2023-04-04T02:28:16;96983.13;;;11.54;100.00
40850;BME280;26571;41.610;25.380;2023-04-04T02:30:41;96971.16;;;11.51;100.00
40850;BME280;26571;41.610;25.380;2023-04-04T02:33:06;96976.63;;;11.43;100.00
40850;BME280;26571;41.610;25.380;2023-04-04T02:35:32;96978.25;;;11.51;100.00
40850;BME280;26571;41.610;25.380;2023-04-04T02:37:57;96969.34;;;11.45;100.00
40850;BME280;26571;41.610;25.380;2023-04-04T02:40:22;96962.63;;;11.56;100.00
40850;BME280;26571;41.610;25.380;2023-04-04T02:42:48;96957.94;;;11.58;100.00
40850;BME280;26571;41.610;25.380;2023-04-04T02:45:13;96954.75;;;11.49;100.00
40850;BME280;26571;41.610;25.380;2023-04-04T02:47:39;96958.41;;;11.42;100.00
40850;BME280;26571;41.610;25.380;2023-04-04T02:50:04;96947.66;;;11.50;100.00
40850;BME280;26571;41.610;25.380;2023-04-04T02:52:29;96940.56;;;11.50;100.00
40850;BME280;26571;41.610;25.380;2023-04-04T02:54:55;96941.72;;;11.61;100.00
40850;BME280;26571;41.610;25.380;2023-04-04T02:57:20;96935.59;;;11.67;100.00
40850;BME280;26571;41.610;25.380;2023-04-04T02:59:45;96939.03;;;11.68;100.00
40850;BME280;26571;41.610;25.380;2023-04-04T03:02:11;96945.75;;;11.63;100.00
40850;BME280;26571;41.610;25.380;2023-04-04T03:04:36;96941.72;;;11.61;100.00
40850;BME280;26571;41.610;25.380;2023-04-04T03:07:01;96942.31;;;11.63;100.00
40850;BME280;26571;41.610;25.380;2023-04-04T03:09:27;96940.69;;;11.62;100.00
40850;BME280;26571;41.610;25.380;2023-04-04T03:11:52;96941.13;;;11.59;100.00
40850;BME280;26571;41.610;25.380;2023-04-04T03:14:18;96939.94;;;11.55;100.00
40850;BME280;26571;41.610;25.380;2023-04-04T03:16:43;96942.00;;;11.33;100.00
40850;BME280;26571;41.610;25.380;2023-04-04T03:19:09;96927.06;;;11.13;100.00
40850;BME280;26571;41.610;25.380;2023-04-04T03:21:34;96933.78;;;11.03;100.00
40850;BME280;26571;41.610;25.380;2023-04-04T03:23:59;96929.13;;;10.98;100.00
40850;BME280;26571;41.610;25.380;2023-04-04T03:26:25;96937.47;;;10.95;100.00
40850;BME280;26571;41.610;25.380;2023-04-04T03:28:52;96943.13;;;10.92;100.00
40850;BME280;26571;41.610;25.380;2023-04-04T03:31:17;96935.84;;;10.94;100.00
40850;BME280;26571;41.610;25.380;2023-04-04T03:33:42;96937.66;;;10.94;100.00
40850;BME280;26571;41.610;25.380;2023-04-04T03:36:09;96937.25;;;10.97;100.00
40850;BME280;26571;41.610;25.380;2023-04-04T03:38:36;96935.00;;;10.94;100.00
40850;BME280;26571;41.610;25.380;2023-04-04T03:41:01;96940.31;;;10.87;100.00
40850;BME280;26571;41.610;25.380;2023-04-04T03:43:30;96936.06;;;10.86;100.00
40850;BME280;26571;41.610;25.380;2023-04-04T03:46:00;96928.97;;;10.86;100.00
40850;BME280;26571;41.610;25.380;2023-04-04T03:48:25;96931.59;;;10.86;100.00
40850;BME280;26571;41.610;25.380;2023-04-04T03:50:51;96929.56;;;10.88;100.00
40850;BME280;26571;41.610;25.380;2023-04-04T03:53:16;96934.41;;;10.92;100.00
40850;BME280;26571;41.610;25.380;2023-04-04T03:55:41;96929.75;;;10.94;100.00
40850;BME280;26571;41.610;25.380;2023-04-04T03:58:07;96932.19;;;10.95;100.00
40850;BME280;26571;41.610;25.380;2023-04-04T04:00:32;96942.72;;;10.95;100.00
40850;BME280;26571;41.610;25.380;2023-04-04T04:02:57;96933.84;;;10.90;100.00
40850;BME280;26571;41.610;25.380;2023-04-04T04:05:22;96928.38;;;10.84;100.00
40850;BME280;26571;41.610;25.380;2023-04-04T04:07:48;96935.44;;;10.91;100.00
40850;BME280;26571;41.610;25.380;2023-04-04T04:10:14;96931.59;;;11.00;100.00
40850;BME280;26571;41.610;25.380;2023-04-04T04:12:39;96937.44;;;11.02;100.00
40850;BME280;26571;41.610;25.380;2023-04-04T04:15:05;96944.72;;;11.06;100.00
40850;BME280;26571;41.610;25.380;2023-04-04T04:17:31;96950.00;;;11.00;100.00
40850;BME280;26571;41.610;25.380;2023-04-04T04:19:56;96954.44;;;11.06;100.00
40850;BME280;26571;41.610;25.380;2023-04-04T04:22:21;96955.47;;;11.05;100.00
40850;BME280;26571;41.610;25.380;2023-04-04T04:24:47;96958.31;;;11.10;100.00
40850;BME280;26571;41.610;25.380;2023-04-04T04:27:12;96957.09;;;11.06;100.00
40850;BME280;26571;41.610;25.380;2023-04-04T04:29:37;96958.09;;;11.11;100.00
40850;BME280;26571;41.610;25.380;2023-04-04T04:32:03;96960.69;;;11.18;100.00
40850;BME280;26571;41.610;25.380;2023-04-04T04:34:28;96957.66;;;11.21;100.00
40850;BME280;26571;41.610;25.380;2023-04-04T04:36:53;96963.34;;;11.25;100.00
40850;BME280;26571;41.610;25.380;2023-04-04T04:39:18;96973.84;;;11.31;100.00
40850;BME280;26571;41.610;25.380;2023-04-04T04:41:44;96977.06;;;11.40;100.00
40850;BME280;26571;41.610;25.380;2023-04-04T04:44:09;96968.94;;;11.42;100.00
40850;BME280;26571;41.610;25.380;2023-04-04T04:46:34;96972.19;;;11.44;100.00
40850;BME280;26571;41.610;25.380;2023-04-04T04:49:00;96964.50;;;11.42;100.00
40850;BME280;26571;41.610;25.380;2023-04-04T04:51:25;96961.63;;;11.44;100.00
40850;BME280;26571;41.610;25.380;2023-04-04T04:53:51;96956.38;;;11.50;100.00
40850;BME280;26571;41.610;25.380;2023-04-04T04:56:16;96953.91;;;11.55;100.00
40850;BME280;26571;41.610;25.380;2023-04-04T04:58:41;96967.69;;;11.64;100.00
40850;BME280;26571;41.610;25.380;2023-04-04T05:01:09;96963.22;;;11.64;100.00
40850;BME280;26571;41.610;25.380;2023-04-04T05:03:34;96970.06;;;11.72;100.00
40850;BME280;26571;41.610;25.380;2023-04-04T05:06:00;96968.44;;;11.71;100.00
40850;BME280;26571;41.610;25.380;2023-04-04T05:08:25;96971.69;;;11.67;100.00
40850;BME280;26571;41.610;25.380;2023-04-04T05:10:51;96975.16;;;11.67;100.00
40850;BME280;26571;41.610;25.380;2023-04-04T05:13:17;96972.69;;;11.72;100.00
40850;BME280;26571;41.610;25.380;2023-04-04T05:15:42;96971.03;;;11.78;100.00
40850;BME280;26571;41.610;25.380;2023-04-04T05:18:07;96973.06;;;11.89;100.00
40850;BME280;26571;41.610;25.380;2023-04-04T05:20:33;96978.53;;;11.87;100.00
40850;BME280;26571;41.610;25.380;2023-04-04T05:22:59;96986.44;;;11.87;100.00
40850;BME280;26571;41.610;25.380;2023-04-04T05:25:24;96984.22;;;11.91;100.00
40850;BME280;26571;41.610;25.380;2023-04-04T05:27:51;96999.63;;;11.94;100.00
40850;BME280;26571;41.610;25.380;2023-04-04T05:30:16;97004.22;;;12.05;100.00
40850;BME280;26571;41.610;25.380;2023-04-04T05:32:43;97008.69;;;12.05;100.00
40850;BME280;26571;41.610;25.380;2023-04-04T05:35:08;97008.66;;;12.11;100.00
40850;BME280;26571;41.610;25.380;2023-04-04T05:37:37;97006.41;;;12.15;100.00
40850;BME280;26571;41.610;25.380;2023-04-04T05:40:02;97010.47;;;12.11;100.00
40850;BME280;26571;41.610;25.380;2023-04-04T05:42:27;97013.72;;;12.13;100.00
40850;BME280;26571;41.610;25.380;2023-04-04T05:44:53;97003.81;;;12.08;100.00
40850;BME280;26571;41.610;25.380;2023-04-04T05:47:18;97009.09;;;12.02;100.00
40850;BME280;26571;41.610;25.380;2023-04-04T05:49:45;97005.78;;;12.13;100.00
40850;BME280;26571;41.610;25.380;2023-04-04T05:52:11;97003.78;;;12.15;100.00
40850;BME280;26571;41.610;25.380;2023-04-04T05:54:36;97006.41;;;12.15;100.00
40850;BME280;26571;41.610;25.380;2023-04-04T05:57:01;97014.69;;;12.25;100.00
40850;BME280;26571;41.610;25.380;2023-04-04T05:59:26;97014.69;;;12.25;100.00
40850;BME280;26571;41.610;25.380;2023-04-04T06:01:52;97013.25;;;12.29;100.00
40850;BME280;26571;41.610;25.380;2023-04-04T06:04:17;97009.56;;;12.30;100.00
40850;BME280;26571;41.610;25.380;2023-04-04T06:06:43;97003.03;;;12.39;100.00
40850;BME280;26571;41.610;25.380;2023-04-04T06:09:08;96996.03;;;12.52;100.00
40850;BME280;26571;41.610;25.380;2023-04-04T06:11:33;96997.63;;;12.53;100.00
40850;BME280;26571;41.610;25.380;2023-04-04T06:13:58;96997.56;;;12.66;100.00
40850;BME280;26571;41.610;25.380;2023-04-04T06:16:24;96984.19;;;12.61;100.00
40850;BME280;26571;41.610;25.380;2023-04-04T06:18:50;96982.75;;;12.65;100.00
40850;BME280;26571;41.610;25.380;2023-04-04T06:21:15;96985.47;;;12.77;100.00
40850;BME280;26571;41.610;25.380;2023-04-04T06:23:41;96987.38;;;12.94;100.00
40850;BME280;26571;41.610;25.380;2023-04-04T06:26:06;96983.94;;;12.94;100.00
40850;BME280;26571;41.610;25.380;2023-04-04T06:28:32;96986.19;;;12.90;100.00
40850;BME280;26571;41.610;25.380;2023-04-04T06:30:57;96984.91;;;13.00;100.00
40850;BME280;26571;41.610;25.380;2023-04-04T06:33:23;96970.44;;;13.02;100.00
40850;BME280;26571;41.610;25.380;2023-04-04T06:35:48;96980.88;;;13.15;100.00
40850;BME280;26571;41.610;25.380;2023-04-04T06:38:13;96984.88;;;13.25;100.00
40850;BME280;26571;41.610;25.380;2023-04-04T06:40:39;96989.38;;;13.24;100.00
40850;BME280;26571;41.610;25.380;2023-04-04T06:43:04;96989.19;;;13.19;100.00
40850;BME280;26571;41.610;25.380;2023-04-04T06:45:29;96982.03;;;13.26;100.00
40850;BME280;26571;41.610;25.380;2023-04-04T06:47:57;96979.81;;;13.41;100.00
40850;BME280;26571;41.610;25.380;2023-04-04T06:50:22;96981.38;;;13.49;100.00
40850;BME280;26571;41.610;25.380;2023-04-04T06:52:48;96983.81;;;13.51;100.00
40850;BME280;26571;41.610;25.380;2023-04-04T06:55:14;96977.63;;;13.57;100.00
40850;BME280;26571;41.610;25.380;2023-04-04T06:57:39;96974.25;;;13.68;100.00
40850;BME280;26571;41.610;25.380;2023-04-04T07:00:05;96968.06;;;13.74;100.00
40850;BME280;26571;41.610;25.380;2023-04-04T07:02:30;96971.72;;;13.91;100.00
40850;BME280;26571;41.610;25.380;2023-04-04T07:04:57;96965.47;;;13.86;100.00
40850;BME280;26571;41.610;25.380;2023-04-04T07:07:22;96968.63;;;13.94;100.00
40850;BME280;26571;41.610;25.380;2023-04-04T07:09:47;96970.06;;;14.09;100.00
40850;BME280;26571;41.610;25.380;2023-04-04T07:12:12;96971.94;;;14.20;100.00
40850;BME280;26571;41.610;25.380;2023-04-04T07:14:38;96974.88;;;14.30;100.00
40850;BME280;26571;41.610;25.380;2023-04-04T07:17:03;96969.34;;;14.32;100.00
40850;BME280;26571;41.610;25.380;2023-04-04T07:19:28;96974.19;;;14.35;100.00
40850;BME280;26571;41.610;25.380;2023-04-04T07:21:54;96976.84;;;14.46;100.00
40850;BME280;26571;41.610;25.380;2023-04-04T07:24:19;96975.44;;;14.62;100.00
40850;BME280;26571;41.610;25.380;2023-04-04T07:26:44;96978.56;;;14.71;100.00
40850;BME280;26571;41.610;25.380;2023-04-04T07:29:10;96973.06;;;14.84;100.00
40850;BME280;26571;41.610;25.380;2023-04-04T07:31:35;96981.13;;;15.01;100.00
40850;BME280;26571;41.610;25.380;2023-04-04T07:34:00;96978.38;;;15.08;100.00
40850;BME280;26571;41.610;25.380;2023-04-04T07:36:26;96971.09;;;15.27;100.00
40850;BME280;26571;41.610;25.380;2023-04-04T07:38:51;96970.38;;;15.43;100.00
40850;BME280;26571;41.610;25.380;2023-04-04T07:41:16;96970.00;;;15.63;100.00
40850;BME280;26571;41.610;25.380;2023-04-04T07:43:42;96973.66;;;15.85;99.11
40850;BME280;26571;41.610;25.380;2023-04-04T07:46:07;96974.66;;;15.96;97.43
40850;BME280;26571;41.610;25.380;2023-04-04T07:48:32;96980.41;;;16.33;96.27
40850;BME280;26571;41.610;25.380;2023-04-04T07:50:57;96970.31;;;16.64;94.72
40850;BME280;26571;41.610;25.380;2023-04-04T07:53:26;96963.06;;;17.10;95.24
40850;BME280;26571;41.610;25.380;2023-04-04T07:55:51;96964.53;;;17.78;94.37
40850;BME280;26571;41.610;25.380;2023-04-04T07:58:16;96967.31;;;18.37;85.00
40850;BME280;26571;41.610;25.380;2023-04-04T08:00:42;96961.75;;;18.44;87.42
40850;BME280;26571;41.610;25.380;2023-04-04T08:03:07;96969.31;;;18.25;87.23
40850;BME280;26571;41.610;25.380;2023-04-04T08:05:32;96967.31;;;18.10;85.44
40850;BME280;26571;41.610;25.380;2023-04-04T08:07:57;96962.94;;;17.77;85.19
40850;BME280;26571;41.610;25.380;2023-04-04T08:10:23;96963.66;;;17.50;85.78
40850;BME280;26571;41.610;25.380;2023-04-04T08:12:48;96961.28;;;17.15;87.58
40850;BME280;26571;41.610;25.380;2023-04-04T08:15:13;96957.78;;;16.93;89.15
40850;BME280;26571;41.610;25.380;2023-04-04T08:17:39;96947.63;;;16.90;90.05
40850;BME280;26571;41.610;25.380;2023-04-04T08:20:04;96946.56;;;17.08;90.19
40850;BME280;26571;41.610;25.380;2023-04-04T08:22:30;96954.03;;;17.27;85.87
40850;BME280;26571;41.610;25.380;2023-04-04T08:24:55;96960.66;;;17.69;86.04
40850;BME280;26571;41.610;25.380;2023-04-04T08:27:20;96966.91;;;18.23;84.78
40850;BME280;26571;41.610;25.380;2023-04-04T08:29:46;96962.00;;;18.69;81.62
40850;BME280;26571;41.610;25.380;2023-04-04T08:32:12;96970.88;;;19.12;67.98
40850;BME280;26571;41.610;25.380;2023-04-04T08:34:37;96967.94;;;19.14;65.45
40850;BME280;26571;41.610;25.380;2023-04-04T08:37:02;96966.97;;;19.25;66.69
40850;BME280;26571;41.610;25.380;2023-04-04T08:39:28;96970.53;;;19.03;64.89
40850;BME280;26571;41.610;25.380;2023-04-04T08:42:03;96971.72;;;18.80;64.63
40850;BME280;26571;41.610;25.380;2023-04-04T08:44:29;96981.03;;;18.51;62.46
40850;BME280;26571;41.610;25.380;2023-04-04T08:46:55;96967.81;;;18.34;66.98
40850;BME280;26571;41.610;25.380;2023-04-04T08:49:22;96974.13;;;18.28;66.39
40850;BME280;26571;41.610;25.380;2023-04-04T08:51:48;96972.69;;;18.15;69.56
40850;BME280;26571;41.610;25.380;2023-04-04T08:54:16;96979.88;;;17.93;66.65
40850;BME280;26571;41.610;25.380;2023-04-04T08:56:41;96979.34;;;17.91;67.44
40850;BME280;26571;41.610;25.380;2023-04-04T08:59:07;96983.34;;;17.93;67.46
40850;BME280;26571;41.610;25.380;2023-04-04T09:01:35;96984.09;;;18.11;67.34
40850;BME280;26571;41.610;25.380;2023-04-04T09:04:00;96987.41;;;18.23;66.48
40850;BME280;26571;41.610;25.380;2023-04-04T09:06:26;96983.69;;;18.24;65.76
40850;BME280;26571;41.610;25.380;2023-04-04T09:08:52;96986.84;;;18.70;66.80
40850;BME280;26571;41.610;25.380;2023-04-04T09:11:18;96982.16;;;19.24;62.01
40850;BME280;26571;41.610;25.380;2023-04-04T09:13:44;96987.59;;;19.34;62.02
40850;BME280;26571;41.610;25.380;2023-04-04T09:16:10;96987.28;;;19.31;64.65
40850;BME280;26571;41.610;25.380;2023-04-04T09:18:36;96989.97;;;19.36;63.18
40850;BME280;26571;41.610;25.380;2023-04-04T09:21:07;96988.09;;;19.31;61.77
40850;BME280;26571;41.610;25.380;2023-04-04T09:23:32;96983.53;;;19.32;58.21
40850;BME280;26571;41.610;25.380;2023-04-04T09:25:58;96979.19;;;19.16;62.16
40850;BME280;26571;41.610;25.380;2023-04-04T09:28:24;96978.22;;;19.32;62.90
40850;BME280;26571;41.610;25.380;2023-04-04T09:30:50;96977.81;;;19.55;58.20
40850;BME280;26571;41.610;25.380;2023-04-04T09:33:16;96969.34;;;19.69;59.91
40850;BME280;26571;41.610;25.380;2023-04-04T09:35:46;96971.56;;;19.82;61.55
40850;BME280;26571;41.610;25.380;2023-04-04T09:38:13;96968.84;;;19.77;57.67
40850;BME280;26571;41.610;25.380;2023-04-04T09:40:39;96958.66;;;19.63;57.24
40850;BME280;26571;41.610;25.380;2023-04-04T09:43:06;96976.22;;;19.54;58.47
40850;BME280;26571;41.610;25.380;2023-04-04T09:45:35;96964.94;;;19.47;59.93
40850;BME280;26571;41.610;25.380;2023-04-04T09:48:01;96968.63;;;19.36;59.80
40850;BME280;26571;41.610;25.380;2023-04-04T09:50:26;96967.53;;;19.32;59.69
40850;BME280;26571;41.610;25.380;2023-04-04T09:52:57;96968.50;;;19.16;57.20
40850;BME280;26571;41.610;25.380;2023-04-04T09:55:33;96972.25;;;19.15;57.62
40850;BME280;26571;41.610;25.380;2023-04-04T09:57:59;96958.88;;;19.09;60.09
40850;BME280;26571;41.610;25.380;2023-04-04T10:00:29;96962.09;;;19.17;54.23
40850;BME280;26571;41.610;25.380;2023-04-04T10:03:01;96961.97;;;19.38;57.57
40850;BME280;26571;41.610;25.380;2023-04-04T10:05:26;96968.75;;;19.56;58.80
40850;BME280;26571;41.610;25.380;2023-04-04T10:07:52;96963.72;;;19.60;56.70
40850;BME280;26571;41.610;25.380;2023-04-04T10:10:18;96967.75;;;19.68;56.58
40850;BME280;26571;41.610;25.380;2023-04-04T10:12:44;96959.50;;;19.69;57.34
40850;BME280;26571;41.610;25.380;2023-04-04T10:15:10;96965.16;;;19.88;54.04
40850;BME280;26571;41.610;25.380;2023-04-04T10:17:36;96970.50;;;19.35;54.63
40850;BME280;26571;41.610;25.380;2023-04-04T10:20:05;96969.75;;;19.03;56.09
40850;BME280;26571;41.610;25.380;2023-04-04T10:22:31;96949.34;;;19.24;59.52
40850;BME280;26571;41.610;25.380;2023-04-04T10:24:57;96956.88;;;19.32;57.59
40850;BME280;26571;41.610;25.380;2023-04-04T10:27:23;96953.59;;;18.50;58.31
40850;BME280;26571;41.610;25.380;2023-04-04T10:29:49;96948.00;;;18.25;62.55
40850;BME280;26571;41.610;25.380;2023-04-04T10:32:48;96944.00;;;17.95;60.48
40850;BME280;26571;41.610;25.380;2023-04-04T10:35:06;96933.34;;;17.95;62.13
40850;BME280;26571;41.610;25.380;2023-04-04T10:37:36;96939.03;;;17.82;61.97
40850;BME280;26571;41.610;25.380;2023-04-04T10:40:14;96930.09;;;17.71;66.57
40850;BME280;26571;41.610;25.380;2023-04-04T10:42:44;96926.50;;;17.17;69.32
40850;BME280;26571;41.610;25.380;2023-04-04T10:45:10;96919.56;;;16.99;70.50
40850;BME280;26571;41.610;25.380;2023-04-04T10:47:37;96929.41;;;16.65;71.50
40850;BME280;26571;41.610;25.380;2023-04-04T10:50:03;96911.53;;;16.60;74.32
40850;BME280;26571;41.610;25.380;2023-04-04T10:52:34;96924.72;;;16.55;75.49
40850;BME280;26571;41.610;25.380;2023-04-04T10:55:01;96925.06;;;16.59;75.61
40850;BME280;26571;41.610;25.380;2023-04-04T10:57:30;96927.66;;;16.25;77.58
40850;BME280;26571;41.610;25.380;2023-04-04T11:02:43;96936.81;;;15.72;80.81
40850;BME280;26571;41.610;25.380;2023-04-04T11:05:19;96933.25;;;15.43;83.04
40850;BME280;26571;41.610;25.380;2023-04-04T11:07:47;96942.16;;;15.25;85.88
40850;BME280;26571;41.610;25.380;2023-04-04T11:10:20;96951.03;;;14.95;87.81
40850;BME280;26571;41.610;25.380;2023-04-04T11:12:45;96948.72;;;14.64;88.20
40850;BME280;26571;41.610;25.380;2023-04-04T11:15:16;96955.66;;;14.46;86.54
40850;BME280;26571;41.610;25.380;2023-04-04T11:20:14;96961.72;;;13.93;91.29
40850;BME280;26571;41.610;25.380;2023-04-04T11:22:40;96961.91;;;13.80;95.98
40850;BME280;26571;41.610;25.380;2023-04-04T11:27:57;96956.59;;;13.80;89.80
40850;BME280;26571;41.610;25.380;2023-04-04T11:30:23;96963.97;;;13.78;88.89
40850;BME280;26571;41.610;25.380;2023-04-04T11:32:49;96975.72;;;13.64;86.59
40850;BME280;26571;41.610;25.380;2023-04-04T11:35:14;96970.28;;;13.59;87.48
40850;BME280;26571;41.610;25.380;2023-04-04T11:37:43;96971.47;;;13.63;85.79
40850;BME280;26571;41.610;25.380;2023-04-04T11:40:34;96970.72;;;13.56;84.49
40850;BME280;26571;41.610;25.380;2023-04-04T11:42:59;96963.53;;;13.44;90.44
40850;BME280;26571;41.610;25.380;2023-04-04T11:45:28;96967.34;;;13.30;89.21
40850;BME280;26571;41.610;25.380;2023-04-04T11:47:54;96969.03;;;13.25;93.50
40850;BME280;26571;41.610;25.380;2023-04-04T11:50:19;96970.47;;;13.20;89.20
40850;BME280;26571;41.610;25.380;2023-04-04T11:52:45;96975.84;;;13.32;90.78
40850;BME280;26571;41.610;25.380;2023-04-04T11:55:19;96980.44;;;13.43;86.46
40850;BME280;26571;41.610;25.380;2023-04-04T11:57:46;96987.19;;;13.39;81.62
40850;BME280;26571;41.610;25.380;2023-04-04T12:00:29;96983.94;;;13.37;83.26
40850;BME280;26571;41.610;25.380;2023-04-04T12:02:54;96983.28;;;13.42;83.08
40850;BME280;26571;41.610;25.380;2023-04-04T12:05:21;96994.66;;;13.61;85.19
40850;BME280;26571;41.610;25.380;2023-04-04T12:07:47;96996.13;;;13.75;87.29
40850;BME280;26571;41.610;25.380;2023-04-04T12:10:12;96992.31;;;13.89;88.74
40850;BME280;26571;41.610;25.380;2023-04-04T12:12:38;96989.38;;;13.98;89.90
40850;BME280;26571;41.610;25.380;2023-04-04T12:15:05;96997.06;;;13.99;91.57
40850;BME280;26571;41.610;25.380;2023-04-04T12:17:30;96992.16;;;14.03;93.36
40850;BME280;26571;41.610;25.380;2023-04-04T12:19:55;96982.94;;;14.05;93.56
40850;BME280;26571;41.610;25.380;2023-04-04T12:22:21;96975.16;;;14.22;94.93
40850;BME280;26571;41.610;25.380;2023-04-04T12:24:46;96973.16;;;14.36;95.21
40850;BME280;26571;41.610;25.380;2023-04-04T12:27:11;96961.97;;;14.52;95.58
40850;BME280;26571;41.610;25.380;2023-04-04T12:29:37;96962.66;;;14.71;95.18
40850;BME280;26571;41.610;25.380;2023-04-04T12:32:02;96954.50;;;14.96;95.17
40850;BME280;26571;41.610;25.380;2023-04-04T12:34:29;96951.75;;;15.14;91.97
40850;BME280;26571;41.610;25.380;2023-04-04T12:36:55;96952.97;;;15.35;89.97
40850;BME280;26571;41.610;25.380;2023-04-04T12:39:21;96956.28;;;15.54;88.42
40850;BME280;26571;41.610;25.380;2023-04-04T12:44:23;96945.84;;;15.88;82.93
40850;BME280;26571;41.610;25.380;2023-04-04T12:46:49;96953.31;;;16.02;82.96
40850;BME280;26571;41.610;25.380;2023-04-04T12:49:19;96957.03;;;16.18;82.16